Time;durP1;ratioP1;P1;durP2;ratioP2;P2;SDS_P1;SDS_P2;PMS_P1;PMS_P2;Temp;Humidity;BMP_temperature;BMP_pressure;BME280_temperature;BME280_humidity;BME280_pressure;Samples;Min_cycle;Max_cycle;Signal;HPM_P1;HPM_P2
2021/12/01 05:47:21;;;;;;;13.30;9.88;;;;;;;0.43;100.00;96181.63;1861634;77;20919;-64
2021/12/01 05:49:48;;;;;;;8.30;6.28;;;;;;;0.45;100.00;96193.48;1861566;77;21111;-58
2021/12/01 05:52:16;;;;;;;7.28;5.55;;;;;;;0.50;100.00;96191.35;1861411;77;20864;-64
2021/12/01 05:54:50;;;;;;;4.97;4.28;;;;;;;0.60;100.00;96213.72;1861652;77;20904;-61
2021/12/01 05:57:14;;;;;;;5.90;5.22;;;;;;;0.65;100.00;96218.97;1861073;77;20912;-63
2021/12/01 05:59:41;;;;;;;4.95;4.45;;;;;;;0.68;100.00;96223.16;1861532;77;21418;-64
2021/12/01 06:02:08;;;;;;;5.33;4.25;;;;;;;0.70;100.00;96221.58;1861526;77;21108;-62
2021/12/01 06:04:36;;;;;;;6.40;5.00;;;;;;;0.71;100.00;96246.86;1861697;77;20863;-62
2021/12/01 06:07:03;;;;;;;6.15;5.17;;;;;;;0.73;100.00;96247.93;1857138;77;20998;-58
2021/12/01 06:09:30;;;;;;;8.93;5.12;;;;;;;0.75;100.00;96253.19;1827773;78;21551;-60
2021/12/01 06:11:57;;;;;;;6.67;4.92;;;;;;;0.76;100.00;96257.39;1826903;78;20875;-60
2021/12/01 06:14:24;;;;;;;7.70;5.40;;;;;;;0.78;100.00;96265.81;1827669;78;21236;-60
2021/12/01 06:16:51;;;;;;;6.90;6.00;;;;;;;0.80;100.00;96278.19;1841426;77;20872;-60
2021/12/01 06:19:19;;;;;;;6.40;5.80;;;;;;;0.78;100.00;96282.94;1851972;77;20919;-61
2021/12/01 06:21:46;;;;;;;6.58;5.92;;;;;;;0.80;100.00;96282.69;1837723;77;21426;-63
2021/12/01 06:24:13;;;;;;;7.05;6.35;;;;;;;0.79;100.00;96289.80;1858654;77;20895;-63
2021/12/01 06:26:40;;;;;;;7.62;6.83;;;;;;;0.79;100.00;96296.39;1860223;77;21864;-62
2021/12/01 06:29:07;;;;;;;7.95;6.60;;;;;;;0.79;100.00;96300.34;1861180;77;20856;-64
2021/12/01 06:31:34;;;;;;;6.87;6.17;;;;;;;0.81;100.00;96308.77;1861586;77;21454;-60
2021/12/01 06:34:00;;;;;;;8.48;7.33;;;;;;;0.85;99.56;96318.27;1861431;77;21001;-59
2021/12/01 06:36:27;;;;;;;8.93;7.22;;;;;;;0.83;99.11;96317.19;1861497;77;21478;-59
2021/12/01 06:38:54;;;;;;;10.13;8.08;;;;;;;0.79;99.16;96333.29;1861509;77;21111;-61
2021/12/01 06:41:21;;;;;;;8.70;7.75;;;;;;;0.78;98.79;96331.70;1861424;77;20888;-63
2021/12/01 06:43:47;;;;;;;8.20;7.20;;;;;;;0.78;98.20;96340.92;1848689;77;21100;-63
2021/12/01 06:46:14;;;;;;;7.90;7.10;;;;;;;0.78;97.97;96347.52;1832151;77;20923;-60
2021/12/01 06:48:42;;;;;;;8.95;7.85;;;;;;;0.77;97.49;96363.60;1842715;77;21049;-67
2021/12/01 06:51:09;;;;;;;10.23;8.40;;;;;;;0.74;97.53;96366.24;1838101;77;21392;-66
2021/12/01 06:53:36;;;;;;;10.82;8.78;;;;;;;0.74;97.51;96367.56;1837899;77;20922;-65
2021/12/01 06:56:04;;;;;;;10.88;9.40;;;;;;;0.78;97.25;96366.52;1834225;77;21439;-59
2021/12/01 06:58:30;;;;;;;10.30;8.43;;;;;;;0.84;97.31;96379.93;1832333;77;21031;-63
2021/12/01 07:00:57;;;;;;;11.90;9.25;;;;;;;0.92;97.08;96384.12;1831799;77;20905;-64
2021/12/01 07:03:24;;;;;;;12.05;9.93;;;;;;;0.96;96.30;96394.41;1841833;77;21118;-63
2021/12/01 07:05:51;;;;;;;13.55;11.40;;;;;;;1.02;96.19;96392.02;1843330;77;20959;-59
2021/12/01 07:08:17;;;;;;;10.30;8.65;;;;;;;1.10;95.99;96408.61;1843069;77;20937;-59
2021/12/01 07:10:45;;;;;;;11.63;9.60;;;;;;;1.12;94.89;96409.66;1770663;80;20905;-62
2021/12/01 07:13:11;;;;;;;11.20;10.00;;;;;;;1.14;94.75;96401.73;1787293;80;21482;-59
2021/12/01 07:15:40;;;;;;;13.50;12.07;;;;;;;1.11;94.31;96410.70;1760803;81;21034;-59
2021/12/01 07:18:08;;;;;;;13.15;11.20;;;;;;;1.06;94.53;96412.82;1773028;80;21324;-59
2021/12/01 07:20:35;;;;;;;11.90;10.30;;;;;;;1.02;94.63;96422.33;1785711;80;20893;-60
2021/12/01 07:23:03;;;;;;;12.75;10.35;;;;;;;1.02;94.71;96424.17;1787675;80;21395;-65
2021/12/01 07:25:33;;;;;;;12.50;10.15;;;;;;;1.02;94.16;96434.72;1785869;80;20975;-60
2021/12/01 07:28:00;;;;;;;11.30;9.70;;;;;;;0.98;93.89;96442.39;1788907;79;21129;-59
2021/12/01 07:30:26;;;;;;;13.25;10.55;;;;;;;0.94;94.00;96451.89;1844153;77;20916;-61
2021/12/01 07:32:53;;;;;;;10.53;9.43;;;;;;;0.92;93.90;96453.98;1845894;76;20868;-62
2021/12/01 07:35:21;;;;;;;11.10;9.90;;;;;;;0.93;94.15;96442.91;1838176;77;21029;-63
2021/12/01 07:37:49;;;;;;;11.20;9.98;;;;;;;0.92;93.77;96455.30;1847316;77;21010;-63
2021/12/01 07:40:16;;;;;;;12.07;10.38;;;;;;;0.88;93.49;96462.16;1841942;77;21066;-61
2021/12/01 07:42:44;;;;;;;13.40;10.78;;;;;;;0.89;93.65;96455.05;1827218;77;21427;-61
2021/12/01 07:45:11;;;;;;;12.23;10.70;;;;;;;0.87;93.55;96460.60;1837692;77;21032;-63
2021/12/01 07:47:40;;;;;;;12.15;10.75;;;;;;;0.86;93.53;96462.96;1827452;77;21166;-58
2021/12/01 07:50:08;;;;;;;14.15;11.60;;;;;;;0.82;93.39;96468.51;1848638;77;21517;-60
2021/12/01 07:52:38;;;;;;;14.00;11.50;;;;;;;0.82;93.54;96473.78;1847421;77;21389;-58
2021/12/01 07:55:09;;;;;;;15.50;12.25;;;;;;;0.80;93.18;96486.41;1846313;77;20963;-62
2021/12/01 07:57:42;;;;;;;13.45;10.53;;;;;;;0.80;93.33;96493.00;1825337;77;20935;-60
2021/12/01 08:00:12;;;;;;;15.85;12.65;;;;;;;0.82;93.19;96494.87;1832229;77;21508;-61
2021/12/01 08:02:41;;;;;;;18.40;14.63;;;;;;;0.83;93.29;96507.49;1835310;77;21043;-61
2021/12/01 08:05:09;;;;;;;16.17;13.68;;;;;;;0.83;93.40;96514.09;1768201;80;21795;-61
2021/12/01 08:07:38;;;;;;;13.85;11.90;;;;;;;0.82;93.37;96513.31;1777005;80;20891;-58
2021/12/01 08:10:06;;;;;;;13.70;12.20;;;;;;;0.81;93.46;96524.10;1808951;79;20885;-59
2021/12/01 08:12:34;;;;;;;16.35;12.65;;;;;;;0.81;93.50;96517.00;1767042;80;20936;-60
2021/12/01 08:15:04;;;;;;;13.83;12.33;;;;;;;0.81;93.47;96536.77;1766523;79;21474;-61
2021/12/01 08:17:32;;;;;;;15.20;13.15;;;;;;;0.81;93.26;96531.49;1780292;80;21455;-59
2021/12/01 08:19:58;;;;;;;15.60;12.88;;;;;;;0.81;93.26;96538.08;1803542;79;21030;-61
2021/12/01 08:22:26;;;;;;;14.13;12.58;;;;;;;0.81;93.28;96545.98;1803452;79;20884;-58
2021/12/01 08:24:57;;;;;;;16.10;14.47;;;;;;;0.78;93.09;96539.91;1803489;79;21506;-59
2021/12/01 08:27:22;;;;;;;14.07;12.60;;;;;;;0.76;92.94;96549.14;1802536;79;20971;-62
2021/12/01 08:29:49;;;;;;;16.20;13.85;;;;;;;0.75;92.96;96549.69;1794549;79;21435;-61
2021/12/01 08:32:17;;;;;;;16.27;12.98;;;;;;;0.80;93.04;96555.48;1796841;79;20978;-63
2021/12/01 08:34:49;;;;;;;15.40;13.48;;;;;;;0.84;92.79;96565.24;1794667;79;21501;-59
2021/12/01 08:37:14;;;;;;;14.47;12.58;;;;;;;0.84;92.82;96567.88;1803165;79;20932;-63
2021/12/01 08:39:41;;;;;;;16.27;13.80;;;;;;;0.87;92.91;96566.05;1788372;79;20960;-62
2021/12/01 08:42:10;;;;;;;16.17;13.68;;;;;;;0.89;92.73;96564.45;1774066;79;21049;-61
2021/12/01 08:44:37;;;;;;;15.32;12.73;;;;;;;0.90;92.78;96572.09;1806400;79;20904;-59
2021/12/01 08:47:06;;;;;;;15.20;13.48;;;;;;;0.93;92.71;96573.41;1840115;77;20991;-62
2021/12/01 08:49:41;;;;;;;16.40;14.47;;;;;;;0.98;92.55;96581.33;1847879;77;21494;-60
2021/12/01 08:52:12;;;;;;;17.15;13.88;;;;;;;0.96;92.26;96565.78;1848459;77;20829;-60
2021/12/01 08:54:47;;;;;;;19.75;14.15;;;;;;;0.95;91.92;96569.98;1840498;77;21021;-60
2021/12/01 08:57:25;;;;;;;15.32;12.63;;;;;;;0.93;92.04;96563.66;1823895;77;21497;-61
2021/12/01 08:59:54;;;;;;;17.48;13.53;;;;;;;0.94;92.05;96567.89;1840311;77;21037;-63
2021/12/01 09:02:22;;;;;;;16.67;14.23;;;;;;;0.96;91.95;96569.73;1846826;77;20994;-58
2021/12/01 09:04:59;;;;;;;16.07;14.05;;;;;;;0.95;92.00;96568.14;1840173;77;20961;-60
2021/12/01 09:07:29;;;;;;;17.77;14.50;;;;;;;0.98;91.96;96589.23;1841629;77;21485;-61
2021/12/01 09:09:58;;;;;;;16.77;13.88;;;;;;;0.95;91.78;96586.59;1770591;80;21028;-61
2021/12/01 09:12:29;;;;;;;15.60;13.00;;;;;;;0.98;91.72;96597.95;1761725;80;20975;-60
2021/12/01 09:14:57;;;;;;;16.87;14.15;;;;;;;1.01;91.38;96606.66;1772326;80;21581;-60
2021/12/01 09:17:27;;;;;;;16.25;13.90;;;;;;;1.01;91.27;96604.54;1769818;80;21075;-59
2021/12/01 09:19:54;;;;;;;17.07;14.20;;;;;;;1.02;91.34;96612.17;1755143;80;21150;-64
2021/12/01 09:22:21;;;;;;;15.38;13.58;;;;;;;1.02;91.12;96610.86;1801894;79;20971;-61
2021/12/01 09:24:48;;;;;;;15.48;12.58;;;;;;;1.06;91.27;96617.73;1802727;79;21052;-58
2021/12/01 09:27:16;;;;;;;14.85;12.90;;;;;;;1.07;90.91;96616.14;1782543;79;20880;-62
2021/12/01 09:29:43;;;;;;;15.50;13.62;;;;;;;1.07;90.70;96627.20;1787327;79;20912;-62
2021/12/01 09:32:12;;;;;;;15.55;13.53;;;;;;;1.06;90.88;96626.41;1805264;79;21133;-59
2021/12/01 09:34:41;;;;;;;15.08;12.78;;;;;;;1.07;90.57;96624.57;1803659;79;20940;-61
2021/12/01 09:37:08;;;;;;;16.70;13.60;;;;;;;1.09;90.54;96631.17;1806077;79;20966;-61
2021/12/01 09:39:36;;;;;;;17.82;14.40;;;;;;;1.13;90.66;96634.85;1805060;79;21012;-60
2021/12/01 09:42:04;;;;;;;16.17;13.80;;;;;;;1.18;90.47;96637.50;1803061;79;21002;-63
2021/12/01 09:44:32;;;;;;;15.88;14.28;;;;;;;1.18;90.26;96629.59;1802427;79;21069;-62
2021/12/01 09:47:00;;;;;;;16.20;14.13;;;;;;;1.16;90.34;96626.95;1795413;79;21063;-61
2021/12/01 09:49:27;;;;;;;15.58;13.22;;;;;;;1.18;90.19;96654.64;1803242;79;21415;-60
2021/12/01 09:51:54;;;;;;;15.13;13.53;;;;;;;1.20;90.05;96659.67;1804659;79;21059;-57
2021/12/01 09:54:21;;;;;;;17.35;13.98;;;;;;;1.19;89.77;96660.20;1805806;79;21031;-62
2021/12/01 09:56:48;;;;;;;17.98;15.45;;;;;;;1.22;89.97;96665.48;1803370;79;21110;-61
2021/12/01 09:59:15;;;;;;;17.07;14.73;;;;;;;1.19;89.66;96665.47;1796852;79;20873;-63
2021/12/01 10:01:49;;;;;;;15.98;14.28;;;;;;;1.17;89.81;96667.58;1775063;80;20936;-62
2021/12/01 10:04:15;;;;;;;16.52;14.73;;;;;;;1.17;89.95;96667.58;1801719;79;21068;-62
2021/12/01 10:06:43;;;;;;;19.02;14.65;;;;;;;1.20;90.11;96678.91;1786799;78;21344;-62
2021/12/01 10:09:11;;;;;;;17.60;14.47;;;;;;;1.24;90.21;96677.35;1797872;79;21109;-62
2021/12/01 10:11:41;;;;;;;17.85;14.75;;;;;;;1.30;90.17;96681.56;1762856;80;21106;-61
2021/12/01 10:14:18;;;;;;;18.15;14.78;;;;;;;1.34;89.81;96677.34;1759333;80;21501;-61
2021/12/01 10:16:49;;;;;;;16.07;14.00;;;;;;;1.33;89.62;96681.56;1769106;80;21382;-59
2021/12/01 10:19:16;;;;;;;17.30;14.90;;;;;;;1.28;89.17;96689.47;1718981;80;21003;-58
2021/12/01 10:21:49;;;;;;;16.50;14.87;;;;;;;1.25;89.31;96692.11;1772964;80;21021;-60
2021/12/01 10:24:23;;;;;;;16.50;14.75;;;;;;;1.25;89.10;96701.34;1775378;80;21553;-63
2021/12/01 10:26:58;;;;;;;17.05;14.05;;;;;;;1.19;89.22;96697.12;1767800;80;20929;-61
2021/12/01 10:29:35;;;;;;;17.15;14.47;;;;;;;1.14;89.16;96701.59;1771117;80;20979;-62
2021/12/01 10:32:10;;;;;;;16.05;13.83;;;;;;;1.14;89.42;96710.30;1770065;80;20975;-61
2021/12/01 10:34:46;;;;;;;17.70;14.40;;;;;;;1.15;89.38;96711.89;1774732;80;21150;-59
2021/12/01 10:37:26;;;;;;;18.98;15.40;;;;;;;1.16;89.52;96721.38;1774636;80;20954;-63
2021/12/01 10:40:24;;;;;;;17.17;15.35;;;;;;;1.15;89.33;96717.17;1773225;80;20876;-60
2021/12/01 10:43:08;;;;;;;18.62;15.45;;;;;;;1.11;89.22;96718.72;1772703;80;21022;-60
2021/12/01 10:45:45;;;;;;;17.25;14.68;;;;;;;1.06;89.29;96722.66;1764919;79;21434;-62
2021/12/01 10:48:23;;;;;;;16.48;14.60;;;;;;;1.04;89.25;96730.05;1774151;80;21708;-63
2021/12/01 10:50:51;;;;;;;18.20;15.03;;;;;;;1.03;89.29;96731.11;1758617;80;21513;-57
2021/12/01 10:53:22;;;;;;;19.10;16.20;;;;;;;1.07;89.25;96726.89;1773098;80;20990;-63
2021/12/01 10:55:52;;;;;;;19.07;15.20;;;;;;;1.10;89.33;96735.61;1774066;80;20994;-63
2021/12/01 10:58:19;;;;;;;16.02;13.72;;;;;;;1.14;89.40;96743.27;1767447;79;21010;-60
2021/12/01 11:00:48;;;;;;;17.32;14.63;;;;;;;1.16;89.16;96729.28;1773416;80;21506;-62
2021/12/01 11:03:21;;;;;;;19.23;15.63;;;;;;;1.18;89.06;96734.29;1771869;80;21089;-61
2021/12/01 11:06:08;;;;;;;17.48;14.98;;;;;;;1.23;89.24;96736.94;1733517;81;21223;-62
2021/12/01 11:08:42;;;;;;;16.57;14.53;;;;;;;1.30;89.04;96746.20;1725469;82;21053;-62
2021/12/01 11:11:11;;;;;;;18.00;15.35;;;;;;;1.32;88.94;96743.28;1741760;81;21022;-61
2021/12/01 11:13:42;;;;;;;17.95;15.35;;;;;;;1.34;88.62;96738.02;1736353;81;21688;-60
2021/12/01 11:16:11;;;;;;;16.65;14.38;;;;;;;1.34;88.47;96736.70;1742591;81;21474;-64
2021/12/01 11:18:41;;;;;;;14.95;13.40;;;;;;;1.37;88.20;96744.63;1742344;81;21011;-62
2021/12/01 11:21:11;;;;;;;17.23;15.10;;;;;;;1.35;88.20;96750.69;1744051;81;21003;-62
2021/12/01 11:23:44;;;;;;;16.73;15.03;;;;;;;1.32;87.89;96756.48;1704854;83;20995;-57
2021/12/01 11:26:19;;;;;;;18.15;14.83;;;;;;;1.31;87.98;96762.30;1709319;83;21500;-62
2021/12/01 11:28:57;;;;;;;17.67;14.70;;;;;;;1.28;87.65;96760.17;1742192;81;20914;-60
2021/12/01 11:31:34;;;;;;;15.50;13.30;;;;;;;1.24;87.95;96764.40;1705997;82;21144;-64
2021/12/01 11:34:11;;;;;;;16.90;14.85;;;;;;;1.29;87.96;96769.69;1731362;82;21042;-65
2021/12/01 11:36:49;;;;;;;17.87;14.60;;;;;;;1.28;87.82;96771.25;1732103;82;21561;-62
2021/12/01 11:39:22;;;;;;;17.27;15.20;;;;;;;1.28;87.28;96769.41;1734750;81;21126;-63
2021/12/01 11:41:51;;;;;;;17.07;14.68;;;;;;;1.26;87.01;96764.92;1742082;81;21493;-66
2021/12/01 11:44:18;;;;;;;19.35;14.07;;;;;;;1.20;86.94;96768.59;1709647;83;21543;-59
2021/12/01 11:46:47;;;;;;;14.18;12.55;;;;;;;1.17;87.00;96775.72;1731268;82;20963;-60
2021/12/01 11:49:15;;;;;;;16.95;14.20;;;;;;;1.18;86.77;96768.58;1731612;82;21002;-58
2021/12/01 11:51:59;;;;;;;18.32;14.60;;;;;;;1.17;86.63;96777.04;1723691;82;21117;-62
2021/12/01 11:54:27;;;;;;;18.15;14.40;;;;;;;1.15;86.65;96775.19;1737851;81;20903;-59
2021/12/01 11:56:58;;;;;;;17.25;15.00;;;;;;;1.12;86.80;96769.11;1732251;82;21427;-59
2021/12/01 11:59:27;;;;;;;15.78;14.03;;;;;;;1.14;86.91;96768.31;1728024;81;21025;-55
2021/12/01 12:02:03;;;;;;;16.25;13.48;;;;;;;1.19;87.05;96770.97;1752132;80;21498;-61
2021/12/01 12:04:43;;;;;;;14.25;12.80;;;;;;;1.21;86.91;96772.82;1742590;82;21115;-55
2021/12/01 12:07:21;;;;;;;15.93;13.13;;;;;;;1.19;87.03;96773.61;1799335;77;20950;-55
2021/12/01 12:10:10;;;;;;;18.02;14.05;;;;;;;1.20;87.07;96772.55;1807768;77;20894;-58
2021/12/01 12:13:07;;;;;;;17.50;13.93;;;;;;;1.19;87.17;96776.77;1789155;80;20954;-58
2021/12/01 12:15:46;;;;;;;13.95;12.20;;;;;;;1.20;87.29;96781.77;1789212;80;20902;-58
2021/12/01 12:18:39;;;;;;;16.60;12.63;;;;;;;1.18;87.09;96779.13;1789413;80;21750;-56
2021/12/01 12:24:17;;;;;;;16.00;13.10;;;;;;;1.19;87.38;96780.73;1789186;80;21410;-59
2021/12/01 12:26:45;;;;;;;17.65;14.33;;;;;;;1.16;87.31;96784.67;1789352;80;20915;-62
2021/12/01 12:29:18;;;;;;;16.12;13.35;;;;;;;1.11;87.44;96773.30;1805552;77;21068;-62
2021/12/01 12:31:48;;;;;;;17.23;13.98;;;;;;;1.11;87.49;96779.38;1810618;78;21805;-59
2021/12/01 12:34:20;;;;;;;14.83;13.25;;;;;;;1.14;87.46;96770.95;1788684;80;21014;-60
2021/12/01 12:36:57;;;;;;;19.30;14.20;;;;;;;1.19;87.69;96766.22;1788140;80;20950;-58
2021/12/01 12:39:30;;;;;;;20.52;14.95;;;;;;;1.22;87.37;96766.51;1789533;80;21028;-60
2021/12/01 12:42:05;;;;;;;18.50;13.75;;;;;;;1.23;87.28;96765.95;1789185;80;21407;-60
2021/12/01 12:44:43;;;;;;;18.07;14.00;;;;;;;1.20;87.13;96771.77;1789183;80;21094;-59
2021/12/01 12:47:19;;;;;;;17.37;14.15;;;;;;;1.20;87.17;96775.73;1789124;80;20942;-60
2021/12/01 12:49:50;;;;;;;17.12;14.00;;;;;;;1.21;87.27;96778.09;1793265;78;21041;-61
2021/12/01 12:52:29;;;;;;;20.45;14.90;;;;;;;1.23;87.34;96781.78;1809535;78;20918;-61
2021/12/01 12:55:12;;;;;;;19.65;16.17;;;;;;;1.24;87.27;96778.91;1812500;78;20886;-60
2021/12/01 12:57:58;;;;;;;22.20;17.10;;;;;;;1.27;87.38;96788.91;1821325;78;21192;-61
2021/12/01 13:00:38;;;;;;;16.23;14.53;;;;;;;1.32;87.20;96786.81;1820849;78;20925;-63
2021/12/01 13:03:28;;;;;;;22.00;17.82;;;;;;;1.33;87.24;96771.27;1815945;78;20902;-62
2021/12/01 13:06:08;;;;;;;23.65;21.07;;;;;;;1.32;87.02;96774.95;1797148;79;20981;-61
2021/12/01 13:08:44;;;;;;;17.42;14.50;;;;;;;1.32;87.15;96767.83;1797606;79;20985;-60
2021/12/01 13:11:18;;;;;;;17.50;14.13;;;;;;;1.36;86.87;96768.12;1797115;79;21659;-63
2021/12/01 13:13:54;;;;;;;19.77;14.75;;;;;;;1.36;86.70;96774.19;1796508;79;21053;-61
2021/12/01 13:16:21;;;;;;;15.83;13.50;;;;;;;1.38;86.58;96766.00;1797444;79;21489;-60
2021/12/01 13:18:50;;;;;;;17.17;14.23;;;;;;;1.45;86.67;96761.78;1797583;79;21016;-59
2021/12/01 13:21:23;;;;;;;17.45;14.95;;;;;;;1.52;86.71;96759.69;1797451;79;20862;-60
2021/12/01 13:23:52;;;;;;;17.98;13.93;;;;;;;1.58;86.14;96760.74;1799863;78;21109;-60
2021/12/01 13:26:32;;;;;;;21.40;17.00;;;;;;;1.55;85.67;96759.97;1829131;78;21037;-58
2021/12/01 13:29:05;;;;;;;38.98;34.70;;;;;;;1.54;85.71;96758.89;1829349;78;21025;-62
2021/12/01 13:31:44;;;;;;;17.30;14.03;;;;;;;1.56;85.67;96759.42;1830475;78;20930;-62
2021/12/01 13:34:20;;;;;;;13.88;11.95;;;;;;;1.57;85.06;96768.41;1830650;78;21024;-61
2021/12/01 13:37:04;;;;;;;14.23;11.48;;;;;;;1.55;84.52;96768.41;1831158;78;21651;-65
2021/12/01 13:39:34;;;;;;;18.17;13.18;;;;;;;1.51;84.29;96772.08;1830511;78;20980;-60
2021/12/01 13:42:05;;;;;;;14.78;12.63;;;;;;;1.51;84.49;96779.23;1799879;78;20986;-60
2021/12/01 13:44:41;;;;;;;14.47;12.68;;;;;;;1.54;83.93;96787.92;1830056;78;20941;-63
2021/12/01 13:47:14;;;;;;;14.63;13.03;;;;;;;1.50;83.87;96784.23;1822964;78;21012;-62
2021/12/01 13:49:52;;;;;;;14.28;12.15;;;;;;;1.44;83.85;96784.73;1811930;78;21077;-66
2021/12/01 13:52:35;;;;;;;16.27;13.22;;;;;;;1.43;84.11;96781.84;1803193;78;21469;-63
2021/12/01 13:55:31;;;;;;;12.90;11.50;;;;;;;1.44;84.35;96783.41;1810491;78;20925;-60
2021/12/01 13:58:20;;;;;;;14.00;12.00;;;;;;;1.49;84.37;96776.03;1827060;78;20867;-60
2021/12/01 14:00:53;;;;;;;13.70;11.70;;;;;;;1.51;84.27;96783.19;1830095;78;20882;-60
2021/12/01 14:03:21;;;;;;;14.38;11.97;;;;;;;1.52;84.30;96778.16;1820146;78;21452;-57
2021/12/01 14:05:51;;;;;;;12.43;11.15;;;;;;;1.45;84.13;96772.34;1820339;78;21012;-58
2021/12/01 14:08:43;;;;;;;14.33;11.55;;;;;;;1.36;84.18;96768.91;1821182;78;21568;-59
